Terminal Aerodrome Forecast
Issued by NWS

Home | Current Version | Previous Version | Graphics & Text | Print | Product List | Glossary On
Versions: 1 2 3 4 5 6 7 8 9 10 11 12 13 14 15
000
FTUS43 KABR 100500
TAFPIR
TAF
KPIR 100536Z 1006/1106 13007KT 6SM HZ SKC
     FM101200 14010KT P6SM SKC
     FM101700 15015G21KT P6SM SCT250=

USA.gov is the U.S. government's official web portal to all federal, state and local government web resources and services.